sensor_id;sensor_type;location;lat;lon;timestamp;P1;durP1;ratioP1;P2;durP2;ratioP2
61899;SDS011;47853;55.890;37.664;2022-11-11T00:00:12;46.17;;;23.98;;
61899;SDS011;47853;55.890;37.664;2022-11-11T00:02:38;46.38;;;26.35;;
61899;SDS011;47853;55.890;37.664;2022-11-11T00:05:03;39.28;;;23.00;;
61899;SDS011;47853;55.890;37.664;2022-11-11T00:07:29;38.13;;;22.10;;
61899;SDS011;47853;55.890;37.664;2022-11-11T00:09:54;41.55;;;22.85;;
61899;SDS011;47853;55.890;37.664;2022-11-11T00:12:20;45.60;;;24.25;;
61899;SDS011;47853;55.890;37.664;2022-11-11T00:14:45;46.00;;;23.20;;
61899;SDS011;47853;55.890;37.664;2022-11-11T00:17:11;43.33;;;23.95;;
61899;SDS011;47853;55.890;37.664;2022-11-11T00:19:37;45.50;;;26.15;;
61899;SDS011;47853;55.890;37.664;2022-11-11T00:22:03;46.83;;;23.80;;
61899;SDS011;47853;55.890;37.664;2022-11-11T00:24:28;49.90;;;26.25;;
61899;SDS011;47853;55.890;37.664;2022-11-11T00:26:54;40.75;;;22.95;;
61899;SDS011;47853;55.890;37.664;2022-11-11T00:29:19;39.70;;;22.17;;
61899;SDS011;47853;55.890;37.664;2022-11-11T00:31:44;49.53;;;23.45;;
61899;SDS011;47853;55.890;37.664;2022-11-11T00:34:10;41.90;;;22.75;;
61899;SDS011;47853;55.890;37.664;2022-11-11T00:36:35;46.95;;;23.42;;
61899;SDS011;47853;55.890;37.664;2022-11-11T00:39:00;43.90;;;23.38;;
61899;SDS011;47853;55.890;37.664;2022-11-11T00:41:26;48.55;;;26.17;;
61899;SDS011;47853;55.890;37.664;2022-11-11T00:43:51;42.15;;;22.77;;
61899;SDS011;47853;55.890;37.664;2022-11-11T00:46:16;44.50;;;23.30;;
61899;SDS011;47853;55.890;37.664;2022-11-11T00:48:42;37.15;;;22.40;;
61899;SDS011;47853;55.890;37.664;2022-11-11T00:51:08;43.85;;;24.38;;
61899;SDS011;47853;55.890;37.664;2022-11-11T00:53:33;38.17;;;21.17;;
61899;SDS011;47853;55.890;37.664;2022-11-11T00:55:58;40.50;;;21.50;;
61899;SDS011;47853;55.890;37.664;2022-11-11T00:58:24;40.75;;;22.65;;
61899;SDS011;47853;55.890;37.664;2022-11-11T01:00:51;42.40;;;22.38;;
61899;SDS011;47853;55.890;37.664;2022-11-11T01:03:20;42.78;;;22.98;;
61899;SDS011;47853;55.890;37.664;2022-11-11T01:05:46;36.75;;;18.33;;
61899;SDS011;47853;55.890;37.664;2022-11-11T01:08:11;39.25;;;21.20;;
61899;SDS011;47853;55.890;37.664;2022-11-11T01:10:37;34.00;;;20.40;;
61899;SDS011;47853;55.890;37.664;2022-11-11T01:13:11;36.17;;;20.15;;
61899;SDS011;47853;55.890;37.664;2022-11-11T01:15:47;35.00;;;20.70;;
61899;SDS011;47853;55.890;37.664;2022-11-11T01:18:14;37.58;;;20.13;;
61899;SDS011;47853;55.890;37.664;2022-11-11T01:20:42;32.08;;;18.85;;
61899;SDS011;47853;55.890;37.664;2022-11-11T01:23:09;35.22;;;19.60;;
61899;SDS011;47853;55.890;37.664;2022-11-11T01:25:35;37.40;;;20.30;;
61899;SDS011;47853;55.890;37.664;2022-11-11T01:28:02;32.47;;;19.45;;
61899;SDS011;47853;55.890;37.664;2022-11-11T01:30:29;30.58;;;18.98;;
61899;SDS011;47853;55.890;37.664;2022-11-11T01:32:55;34.20;;;18.30;;
61899;SDS011;47853;55.890;37.664;2022-11-11T01:35:21;35.15;;;19.55;;
61899;SDS011;47853;55.890;37.664;2022-11-11T01:37:46;30.92;;;18.92;;
61899;SDS011;47853;55.890;37.664;2022-11-11T01:40:11;28.35;;;16.05;;
61899;SDS011;47853;55.890;37.664;2022-11-11T01:48:28;29.92;;;18.50;;
61899;SDS011;47853;55.890;37.664;2022-11-11T01:50:59;30.52;;;18.55;;
61899;SDS011;47853;55.890;37.664;2022-11-11T01:53:25;25.42;;;15.98;;
61899;SDS011;47853;55.890;37.664;2022-11-11T01:55:51;29.10;;;18.50;;
61899;SDS011;47853;55.890;37.664;2022-11-11T01:58:17;30.90;;;17.40;;
61899;SDS011;47853;55.890;37.664;2022-11-11T02:00:44;34.10;;;18.60;;
61899;SDS011;47853;55.890;37.664;2022-11-11T02:03:10;35.00;;;18.55;;
61899;SDS011;47853;55.890;37.664;2022-11-11T02:05:37;31.35;;;17.38;;
61899;SDS011;47853;55.890;37.664;2022-11-11T02:08:10;30.90;;;18.27;;
61899;SDS011;47853;55.890;37.664;2022-11-11T02:10:40;31.48;;;18.75;;
61899;SDS011;47853;55.890;37.664;2022-11-11T02:13:11;28.50;;;17.45;;
61899;SDS011;47853;55.890;37.664;2022-11-11T02:15:38;30.17;;;19.20;;
61899;SDS011;47853;55.890;37.664;2022-11-11T02:18:04;28.45;;;17.30;;
61899;SDS011;47853;55.890;37.664;2022-11-11T02:20:32;29.67;;;18.10;;
61899;SDS011;47853;55.890;37.664;2022-11-11T02:23:02;31.17;;;17.42;;
61899;SDS011;47853;55.890;37.664;2022-11-11T02:25:48;26.13;;;15.25;;
61899;SDS011;47853;55.890;37.664;2022-11-11T02:28:14;30.30;;;18.40;;
61899;SDS011;47853;55.890;37.664;2022-11-11T02:30:42;34.40;;;18.52;;
61899;SDS011;47853;55.890;37.664;2022-11-11T02:33:07;27.92;;;15.93;;
61899;SDS011;47853;55.890;37.664;2022-11-11T02:35:34;26.75;;;16.20;;
61899;SDS011;47853;55.890;37.664;2022-11-11T02:38:03;23.33;;;14.10;;
61899;SDS011;47853;55.890;37.664;2022-11-11T02:40:32;27.50;;;15.30;;
61899;SDS011;47853;55.890;37.664;2022-11-11T02:43:02;28.35;;;16.17;;
61899;SDS011;47853;55.890;37.664;2022-11-11T02:45:28;23.45;;;15.60;;
61899;SDS011;47853;55.890;37.664;2022-11-11T02:47:53;25.67;;;15.48;;
61899;SDS011;47853;55.890;37.664;2022-11-11T02:50:19;25.55;;;14.55;;
61899;SDS011;47853;55.890;37.664;2022-11-11T02:52:44;23.38;;;14.38;;
61899;SDS011;47853;55.890;37.664;2022-11-11T02:55:09;23.23;;;14.40;;
61899;SDS011;47853;55.890;37.664;2022-11-11T02:57:35;24.77;;;14.77;;
61899;SDS011;47853;55.890;37.664;2022-11-11T03:00:01;23.92;;;14.02;;
61899;SDS011;47853;55.890;37.664;2022-11-11T03:02:28;26.85;;;14.27;;
61899;SDS011;47853;55.890;37.664;2022-11-11T03:04:54;22.55;;;15.25;;
61899;SDS011;47853;55.890;37.664;2022-11-11T03:07:20;19.58;;;13.15;;
61899;SDS011;47853;55.890;37.664;2022-11-11T03:09:46;26.95;;;13.77;;
61899;SDS011;47853;55.890;37.664;2022-11-11T03:12:11;17.73;;;11.90;;
61899;SDS011;47853;55.890;37.664;2022-11-11T03:14:37;20.20;;;12.18;;
61899;SDS011;47853;55.890;37.664;2022-11-11T03:17:02;18.25;;;12.43;;
61899;SDS011;47853;55.890;37.664;2022-11-11T03:19:27;20.42;;;12.43;;
61899;SDS011;47853;55.890;37.664;2022-11-11T03:21:53;19.48;;;11.63;;
61899;SDS011;47853;55.890;37.664;2022-11-11T03:24:18;19.25;;;12.18;;
61899;SDS011;47853;55.890;37.664;2022-11-11T03:26:43;18.13;;;12.27;;
61899;SDS011;47853;55.890;37.664;2022-11-11T03:29:09;16.35;;;11.38;;
61899;SDS011;47853;55.890;37.664;2022-11-11T03:31:34;17.45;;;11.50;;
61899;SDS011;47853;55.890;37.664;2022-11-11T03:33:59;19.73;;;11.25;;
61899;SDS011;47853;55.890;37.664;2022-11-11T03:36:25;18.70;;;10.38;;
61899;SDS011;47853;55.890;37.664;2022-11-11T03:38:50;20.65;;;11.77;;
61899;SDS011;47853;55.890;37.664;2022-11-11T03:41:15;16.52;;;10.88;;
61899;SDS011;47853;55.890;37.664;2022-11-11T03:43:41;13.75;;;10.07;;
61899;SDS011;47853;55.890;37.664;2022-11-11T03:46:06;18.20;;;10.68;;
61899;SDS011;47853;55.890;37.664;2022-11-11T03:48:32;15.98;;;9.75;;
61899;SDS011;47853;55.890;37.664;2022-11-11T03:50:58;15.60;;;10.20;;
61899;SDS011;47853;55.890;37.664;2022-11-11T03:53:23;16.58;;;10.18;;
61899;SDS011;47853;55.890;37.664;2022-11-11T03:55:49;17.83;;;10.52;;
61899;SDS011;47853;55.890;37.664;2022-11-11T03:58:15;16.40;;;9.85;;
61899;SDS011;47853;55.890;37.664;2022-11-11T04:00:42;13.82;;;10.18;;
61899;SDS011;47853;55.890;37.664;2022-11-11T04:03:11;14.88;;;10.52;;
61899;SDS011;47853;55.890;37.664;2022-11-11T04:05:38;18.05;;;12.32;;
61899;SDS011;47853;55.890;37.664;2022-11-11T04:08:03;13.63;;;9.73;;
61899;SDS011;47853;55.890;37.664;2022-11-11T04:10:29;13.52;;;9.43;;
61899;SDS011;47853;55.890;37.664;2022-11-11T04:12:55;15.98;;;9.90;;
61899;SDS011;47853;55.890;37.664;2022-11-11T04:15:22;15.60;;;10.77;;
61899;SDS011;47853;55.890;37.664;2022-11-11T04:17:47;15.05;;;10.48;;
61899;SDS011;47853;55.890;37.664;2022-11-11T04:20:13;16.88;;;11.48;;
61899;SDS011;47853;55.890;37.664;2022-11-11T04:22:41;17.83;;;11.48;;
61899;SDS011;47853;55.890;37.664;2022-11-11T04:25:07;18.80;;;13.13;;
61899;SDS011;47853;55.890;37.664;2022-11-11T04:27:33;14.90;;;10.10;;
61899;SDS011;47853;55.890;37.664;2022-11-11T04:29:58;14.88;;;10.90;;
61899;SDS011;47853;55.890;37.664;2022-11-11T04:32:23;13.80;;;10.18;;
61899;SDS011;47853;55.890;37.664;2022-11-11T04:34:55;16.23;;;11.27;;
61899;SDS011;47853;55.890;37.664;2022-11-11T04:37:22;15.75;;;11.18;;
61899;SDS011;47853;55.890;37.664;2022-11-11T04:39:49;16.02;;;10.25;;
61899;SDS011;47853;55.890;37.664;2022-11-11T04:42:14;17.38;;;10.80;;
61899;SDS011;47853;55.890;37.664;2022-11-11T04:44:40;20.60;;;11.73;;
61899;SDS011;47853;55.890;37.664;2022-11-11T04:47:05;18.15;;;11.93;;
61899;SDS011;47853;55.890;37.664;2022-11-11T04:49:30;19.95;;;12.95;;
61899;SDS011;47853;55.890;37.664;2022-11-11T04:51:56;18.95;;;12.18;;
61899;SDS011;47853;55.890;37.664;2022-11-11T04:54:21;15.32;;;11.52;;
61899;SDS011;47853;55.890;37.664;2022-11-11T04:56:46;19.00;;;13.25;;
61899;SDS011;47853;55.890;37.664;2022-11-11T04:59:12;16.50;;;12.23;;
61899;SDS011;47853;55.890;37.664;2022-11-11T05:01:37;16.65;;;11.43;;
61899;SDS011;47853;55.890;37.664;2022-11-11T05:04:02;16.50;;;11.50;;
61899;SDS011;47853;55.890;37.664;2022-11-11T05:06:28;19.73;;;12.02;;
61899;SDS011;47853;55.890;37.664;2022-11-11T05:08:53;13.20;;;10.43;;
61899;SDS011;47853;55.890;37.664;2022-11-11T05:11:19;14.85;;;9.57;;
61899;SDS011;47853;55.890;37.664;2022-11-11T05:13:45;11.48;;;8.77;;
61899;SDS011;47853;55.890;37.664;2022-11-11T05:16:18;14.90;;;9.30;;
61899;SDS011;47853;55.890;37.664;2022-11-11T05:18:47;15.57;;;10.25;;
61899;SDS011;47853;55.890;37.664;2022-11-11T05:21:17;12.80;;;9.35;;
61899;SDS011;47853;55.890;37.664;2022-11-11T05:23:45;16.95;;;10.73;;
61899;SDS011;47853;55.890;37.664;2022-11-11T05:26:10;17.63;;;11.38;;
61899;SDS011;47853;55.890;37.664;2022-11-11T05:28:35;16.45;;;10.82;;
61899;SDS011;47853;55.890;37.664;2022-11-11T05:31:01;18.20;;;12.77;;
61899;SDS011;47853;55.890;37.664;2022-11-11T05:33:26;15.50;;;10.48;;
61899;SDS011;47853;55.890;37.664;2022-11-11T05:35:51;14.13;;;10.18;;
61899;SDS011;47853;55.890;37.664;2022-11-11T05:38:17;14.60;;;10.30;;
61899;SDS011;47853;55.890;37.664;2022-11-11T05:40:42;21.45;;;12.18;;
61899;SDS011;47853;55.890;37.664;2022-11-11T05:43:07;15.20;;;11.18;;
61899;SDS011;47853;55.890;37.664;2022-11-11T05:45:33;20.23;;;12.60;;
61899;SDS011;47853;55.890;37.664;2022-11-11T05:48:01;13.30;;;10.63;;
61899;SDS011;47853;55.890;37.664;2022-11-11T05:50:27;16.80;;;10.85;;
61899;SDS011;47853;55.890;37.664;2022-11-11T05:52:52;12.60;;;9.50;;
61899;SDS011;47853;55.890;37.664;2022-11-11T05:55:17;14.43;;;9.48;;
61899;SDS011;47853;55.890;37.664;2022-11-11T05:57:43;13.05;;;9.70;;
61899;SDS011;47853;55.890;37.664;2022-11-11T06:00:08;11.82;;;8.98;;
61899;SDS011;47853;55.890;37.664;2022-11-11T06:02:34;10.82;;;7.80;;
61899;SDS011;47853;55.890;37.664;2022-11-11T06:04:59;15.50;;;10.93;;
61899;SDS011;47853;55.890;37.664;2022-11-11T06:07:25;11.98;;;8.65;;
61899;SDS011;47853;55.890;37.664;2022-11-11T06:09:50;13.15;;;9.45;;
61899;SDS011;47853;55.890;37.664;2022-11-11T06:12:15;13.45;;;9.38;;
61899;SDS011;47853;55.890;37.664;2022-11-11T06:14:41;11.80;;;8.25;;
61899;SDS011;47853;55.890;37.664;2022-11-11T06:17:06;14.38;;;8.40;;
61899;SDS011;47853;55.890;37.664;2022-11-11T06:19:31;13.90;;;10.27;;
61899;SDS011;47853;55.890;37.664;2022-11-11T06:21:57;15.70;;;9.05;;
61899;SDS011;47853;55.890;37.664;2022-11-11T06:24:22;9.95;;;7.47;;
61899;SDS011;47853;55.890;37.664;2022-11-11T06:26:48;11.38;;;8.85;;
61899;SDS011;47853;55.890;37.664;2022-11-11T06:29:13;18.05;;;9.90;;
61899;SDS011;47853;55.890;37.664;2022-11-11T06:31:38;15.07;;;8.82;;
61899;SDS011;47853;55.890;37.664;2022-11-11T06:34:04;9.65;;;7.32;;
61899;SDS011;47853;55.890;37.664;2022-11-11T06:36:29;9.25;;;6.72;;
61899;SDS011;47853;55.890;37.664;2022-11-11T06:38:54;9.80;;;6.78;;
61899;SDS011;47853;55.890;37.664;2022-11-11T06:41:21;10.55;;;8.27;;
61899;SDS011;47853;55.890;37.664;2022-11-11T06:43:46;11.85;;;7.43;;
61899;SDS011;47853;55.890;37.664;2022-11-11T06:46:13;11.15;;;6.80;;
61899;SDS011;47853;55.890;37.664;2022-11-11T06:48:44;12.23;;;7.47;;
61899;SDS011;47853;55.890;37.664;2022-11-11T06:51:10;10.45;;;7.90;;
61899;SDS011;47853;55.890;37.664;2022-11-11T06:53:36;10.35;;;6.95;;
61899;SDS011;47853;55.890;37.664;2022-11-11T06:56:01;12.68;;;8.25;;
61899;SDS011;47853;55.890;37.664;2022-11-11T06:58:27;10.25;;;6.47;;
61899;SDS011;47853;55.890;37.664;2022-11-11T07:00:52;12.40;;;7.32;;
61899;SDS011;47853;55.890;37.664;2022-11-11T07:03:18;11.40;;;7.55;;
61899;SDS011;47853;55.890;37.664;2022-11-11T07:05:45;9.23;;;6.45;;
61899;SDS011;47853;55.890;37.664;2022-11-11T07:08:12;10.70;;;7.63;;
61899;SDS011;47853;55.890;37.664;2022-11-11T07:10:39;12.75;;;7.63;;
61899;SDS011;47853;55.890;37.664;2022-11-11T07:13:09;9.98;;;6.65;;
61899;SDS011;47853;55.890;37.664;2022-11-11T07:15:34;9.18;;;6.88;;
61899;SDS011;47853;55.890;37.664;2022-11-11T07:18:01;10.38;;;6.60;;
61899;SDS011;47853;55.890;37.664;2022-11-11T07:20:27;9.18;;;6.80;;
61899;SDS011;47853;55.890;37.664;2022-11-11T07:22:52;9.48;;;7.10;;
61899;SDS011;47853;55.890;37.664;2022-11-11T07:25:17;10.25;;;7.20;;
61899;SDS011;47853;55.890;37.664;2022-11-11T07:27:43;13.60;;;7.43;;
61899;SDS011;47853;55.890;37.664;2022-11-11T07:30:09;8.35;;;5.65;;
61899;SDS011;47853;55.890;37.664;2022-11-11T07:32:35;8.93;;;6.82;;
61899;SDS011;47853;55.890;37.664;2022-11-11T07:35:01;10.02;;;6.40;;
61899;SDS011;47853;55.890;37.664;2022-11-11T07:37:29;10.38;;;7.07;;
61899;SDS011;47853;55.890;37.664;2022-11-11T07:39:55;11.95;;;7.00;;
61899;SDS011;47853;55.890;37.664;2022-11-11T07:42:20;11.63;;;6.68;;
61899;SDS011;47853;55.890;37.664;2022-11-11T07:44:45;11.95;;;7.55;;
61899;SDS011;47853;55.890;37.664;2022-11-11T07:47:11;11.10;;;5.80;;
61899;SDS011;47853;55.890;37.664;2022-11-11T07:49:36;10.85;;;7.70;;
61899;SDS011;47853;55.890;37.664;2022-11-11T07:52:01;11.18;;;7.03;;
61899;SDS011;47853;55.890;37.664;2022-11-11T07:54:27;9.25;;;6.88;;
61899;SDS011;47853;55.890;37.664;2022-11-11T07:56:53;8.65;;;7.30;;
61899;SDS011;47853;55.890;37.664;2022-11-11T07:59:18;10.88;;;7.05;;
61899;SDS011;47853;55.890;37.664;2022-11-11T08:01:44;15.30;;;7.05;;
61899;SDS011;47853;55.890;37.664;2022-11-11T08:04:09;9.63;;;6.40;;
61899;SDS011;47853;55.890;37.664;2022-11-11T08:06:34;9.48;;;7.22;;
61899;SDS011;47853;55.890;37.664;2022-11-11T08:09:00;11.93;;;7.40;;
61899;SDS011;47853;55.890;37.664;2022-11-11T08:11:25;12.40;;;7.28;;
61899;SDS011;47853;55.890;37.664;2022-11-11T08:13:50;8.10;;;5.82;;
61899;SDS011;47853;55.890;37.664;2022-11-11T08:16:16;9.98;;;6.80;;
61899;SDS011;47853;55.890;37.664;2022-11-11T08:18:41;12.40;;;7.35;;
61899;SDS011;47853;55.890;37.664;2022-11-11T08:21:06;11.15;;;6.75;;
61899;SDS011;47853;55.890;37.664;2022-11-11T08:23:32;10.20;;;6.10;;
61899;SDS011;47853;55.890;37.664;2022-11-11T08:26:02;10.05;;;6.50;;
61899;SDS011;47853;55.890;37.664;2022-11-11T08:28:30;9.20;;;6.85;;
61899;SDS011;47853;55.890;37.664;2022-11-11T08:30:58;9.15;;;6.78;;
61899;SDS011;47853;55.890;37.664;2022-11-11T08:33:24;8.27;;;6.32;;
61899;SDS011;47853;55.890;37.664;2022-11-11T08:35:51;11.05;;;8.02;;
61899;SDS011;47853;55.890;37.664;2022-11-11T08:38:16;8.10;;;6.45;;
61899;SDS011;47853;55.890;37.664;2022-11-11T08:40:41;11.93;;;6.70;;
61899;SDS011;47853;55.890;37.664;2022-11-11T08:43:07;9.27;;;5.95;;
61899;SDS011;47853;55.890;37.664;2022-11-11T08:45:32;7.18;;;5.43;;
61899;SDS011;47853;55.890;37.664;2022-11-11T08:47:58;8.82;;;5.75;;
61899;SDS011;47853;55.890;37.664;2022-11-11T08:50:23;7.40;;;5.80;;
61899;SDS011;47853;55.890;37.664;2022-11-11T08:52:49;8.13;;;5.70;;
61899;SDS011;47853;55.890;37.664;2022-11-11T08:55:15;6.97;;;5.60;;
61899;SDS011;47853;55.890;37.664;2022-11-11T08:57:41;10.13;;;5.60;;
61899;SDS011;47853;55.890;37.664;2022-11-11T09:00:07;8.20;;;5.63;;
61899;SDS011;47853;55.890;37.664;2022-11-11T09:02:33;8.88;;;6.00;;
61899;SDS011;47853;55.890;37.664;2022-11-11T09:04:59;9.02;;;6.15;;
61899;SDS011;47853;55.890;37.664;2022-11-11T09:07:25;10.50;;;6.32;;
61899;SDS011;47853;55.890;37.664;2022-11-11T09:09:51;7.55;;;5.43;;
61899;SDS011;47853;55.890;37.664;2022-11-11T09:12:16;10.40;;;5.68;;
61899;SDS011;47853;55.890;37.664;2022-11-11T09:14:41;7.75;;;5.60;;
61899;SDS011;47853;55.890;37.664;2022-11-11T09:17:07;5.57;;;4.70;;
61899;SDS011;47853;55.890;37.664;2022-11-11T09:19:32;6.85;;;5.03;;
61899;SDS011;47853;55.890;37.664;2022-11-11T09:21:57;7.80;;;5.40;;
61899;SDS011;47853;55.890;37.664;2022-11-11T09:24:23;7.50;;;5.38;;
61899;SDS011;47853;55.890;37.664;2022-11-11T09:26:48;9.25;;;5.97;;
61899;SDS011;47853;55.890;37.664;2022-11-11T09:29:14;7.85;;;5.38;;
61899;SDS011;47853;55.890;37.664;2022-11-11T09:31:40;7.03;;;5.38;;
61899;SDS011;47853;55.890;37.664;2022-11-11T09:34:05;8.82;;;5.50;;
61899;SDS011;47853;55.890;37.664;2022-11-11T09:36:31;10.07;;;5.57;;
61899;SDS011;47853;55.890;37.664;2022-11-11T09:38:57;11.90;;;5.38;;
61899;SDS011;47853;55.890;37.664;2022-11-11T09:47:03;7.10;;;5.20;;
61899;SDS011;47853;55.890;37.664;2022-11-11T09:52:26;10.35;;;5.97;;
61899;SDS011;47853;55.890;37.664;2022-11-11T09:57:32;6.82;;;5.05;;
61899;SDS011;47853;55.890;37.664;2022-11-11T10:00:04;6.32;;;4.68;;
61899;SDS011;47853;55.890;37.664;2022-11-11T10:02:40;7.95;;;4.90;;
61899;SDS011;47853;55.890;37.664;2022-11-11T10:05:23;7.60;;;5.25;;
61899;SDS011;47853;55.890;37.664;2022-11-11T10:07:58;6.90;;;5.53;;
61899;SDS011;47853;55.890;37.664;2022-11-11T10:10:46;8.32;;;5.03;;
61899;SDS011;47853;55.890;37.664;2022-11-11T10:13:18;6.20;;;4.70;;
61899;SDS011;47853;55.890;37.664;2022-11-11T10:21:25;6.65;;;5.47;;
61899;SDS011;47853;55.890;37.664;2022-11-11T10:24:10;6.22;;;4.88;;
61899;SDS011;47853;55.890;37.664;2022-11-11T10:26:40;4.93;;;4.07;;
61899;SDS011;47853;55.890;37.664;2022-11-11T10:29:13;4.95;;;3.70;;
61899;SDS011;47853;55.890;37.664;2022-11-11T10:31:42;5.35;;;4.32;;
61899;SDS011;47853;55.890;37.664;2022-11-11T10:34:12;6.97;;;4.80;;
61899;SDS011;47853;55.890;37.664;2022-11-11T10:36:48;5.28;;;3.92;;
61899;SDS011;47853;55.890;37.664;2022-11-11T10:39:42;5.38;;;4.00;;
61899;SDS011;47853;55.890;37.664;2022-11-11T10:42:24;5.95;;;4.25;;
61899;SDS011;47853;55.890;37.664;2022-11-11T10:44:50;6.72;;;4.38;;
61899;SDS011;47853;55.890;37.664;2022-11-11T10:58:45;6.32;;;4.28;;
61899;SDS011;47853;55.890;37.664;2022-11-11T11:01:19;4.40;;;3.85;;
61899;SDS011;47853;55.890;37.664;2022-11-11T11:03:54;4.93;;;4.18;;
61899;SDS011;47853;55.890;37.664;2022-11-11T11:06:26;11.07;;;4.63;;
61899;SDS011;47853;55.890;37.664;2022-11-11T11:09:00;6.90;;;5.00;;
61899;SDS011;47853;55.890;37.664;2022-11-11T11:11:36;5.30;;;4.68;;
61899;SDS011;47853;55.890;37.664;2022-11-11T11:14:07;9.82;;;4.60;;
61899;SDS011;47853;55.890;37.664;2022-11-11T11:16:41;5.43;;;4.38;;
61899;SDS011;47853;55.890;37.664;2022-11-11T11:19:19;8.32;;;4.60;;
61899;SDS011;47853;55.890;37.664;2022-11-11T11:21:54;7.07;;;4.20;;
61899;SDS011;47853;55.890;37.664;2022-11-11T11:24:27;4.63;;;3.90;;
61899;SDS011;47853;55.890;37.664;2022-11-11T11:26:55;5.97;;;4.35;;
61899;SDS011;47853;55.890;37.664;2022-11-11T11:29:59;10.93;;;5.35;;
61899;SDS011;47853;55.890;37.664;2022-11-11T11:32:15;8.90;;;5.25;;
61899;SDS011;47853;55.890;37.664;2022-11-11T11:37:15;6.68;;;4.40;;
61899;SDS011;47853;55.890;37.664;2022-11-11T11:39:42;7.18;;;5.40;;
61899;SDS011;47853;55.890;37.664;2022-11-11T11:42:07;6.00;;;4.75;;
61899;SDS011;47853;55.890;37.664;2022-11-11T11:44:50;5.72;;;4.40;;
61899;SDS011;47853;55.890;37.664;2022-11-11T11:47:22;7.10;;;5.68;;
61899;SDS011;47853;55.890;37.664;2022-11-11T11:55:36;7.45;;;5.47;;
61899;SDS011;47853;55.890;37.664;2022-11-11T12:06:20;6.15;;;4.93;;
61899;SDS011;47853;55.890;37.664;2022-11-11T12:14:48;8.68;;;6.00;;
61899;SDS011;47853;55.890;37.664;2022-11-11T12:25:39;9.40;;;5.47;;
61899;SDS011;47853;55.890;37.664;2022-11-11T12:34:32;9.68;;;7.13;;
61899;SDS011;47853;55.890;37.664;2022-11-11T12:46:10;10.15;;;7.00;;
61899;SDS011;47853;55.890;37.664;2022-11-11T12:48:50;10.82;;;7.38;;
61899;SDS011;47853;55.890;37.664;2022-11-11T12:57:30;7.72;;;5.85;;
61899;SDS011;47853;55.890;37.664;2022-11-11T13:16:10;7.95;;;5.45;;
61899;SDS011;47853;55.890;37.664;2022-11-11T13:21:20;6.15;;;3.92;;
61899;SDS011;47853;55.890;37.664;2022-11-11T13:23:50;5.85;;;4.45;;
61899;SDS011;47853;55.890;37.664;2022-11-11T13:26:27;8.20;;;4.57;;
61899;SDS011;47853;55.890;37.664;2022-11-11T13:31:52;6.38;;;4.88;;
61899;SDS011;47853;55.890;37.664;2022-11-11T13:34:19;6.93;;;4.28;;
61899;SDS011;47853;55.890;37.664;2022-11-11T13:36:50;7.68;;;4.20;;
61899;SDS011;47853;55.890;37.664;2022-11-11T13:39:37;5.63;;;4.53;;
61899;SDS011;47853;55.890;37.664;2022-11-11T13:42:08;6.88;;;3.60;;
61899;SDS011;47853;55.890;37.664;2022-11-11T13:44:50;5.18;;;4.45;;
61899;SDS011;47853;55.890;37.664;2022-11-11T13:47:20;6.05;;;3.95;;
61899;SDS011;47853;55.890;37.664;2022-11-11T13:50:07;5.00;;;3.90;;
61899;SDS011;47853;55.890;37.664;2022-11-11T13:52:51;5.22;;;3.90;;
61899;SDS011;47853;55.890;37.664;2022-11-11T13:55:36;3.92;;;3.45;;
61899;SDS011;47853;55.890;37.664;2022-11-11T13:58:24;4.55;;;3.70;;
61899;SDS011;47853;55.890;37.664;2022-11-11T14:01:04;6.82;;;3.78;;
61899;SDS011;47853;55.890;37.664;2022-11-11T14:03:32;7.38;;;4.13;;
61899;SDS011;47853;55.890;37.664;2022-11-11T14:11:18;5.93;;;4.15;;
61899;SDS011;47853;55.890;37.664;2022-11-11T14:13:51;5.40;;;4.18;;
61899;SDS011;47853;55.890;37.664;2022-11-11T14:21:48;4.85;;;3.70;;
61899;SDS011;47853;55.890;37.664;2022-11-11T14:24:37;5.97;;;3.83;;
61899;SDS011;47853;55.890;37.664;2022-11-11T14:29:32;10.25;;;3.72;;
61899;SDS011;47853;55.890;37.664;2022-11-11T14:37:56;4.95;;;3.60;;
61899;SDS011;47853;55.890;37.664;2022-11-11T14:46:02;10.80;;;4.45;;
61899;SDS011;47853;55.890;37.664;2022-11-11T14:51:35;6.35;;;4.72;;
61899;SDS011;47853;55.890;37.664;2022-11-11T14:54:01;5.78;;;4.65;;
61899;SDS011;47853;55.890;37.664;2022-11-11T14:56:35;8.77;;;5.38;;
61899;SDS011;47853;55.890;37.664;2022-11-11T14:59:05;9.45;;;5.90;;
61899;SDS011;47853;55.890;37.664;2022-11-11T15:01:32;8.82;;;6.03;;
61899;SDS011;47853;55.890;37.664;2022-11-11T15:04:01;7.07;;;5.18;;
61899;SDS011;47853;55.890;37.664;2022-11-11T15:12:26;8.20;;;6.33;;
61899;SDS011;47853;55.890;37.664;2022-11-11T15:22:58;7.28;;;4.43;;
61899;SDS011;47853;55.890;37.664;2022-11-11T15:39:10;4.43;;;3.88;;
61899;SDS011;47853;55.890;37.664;2022-11-11T15:41:40;7.03;;;3.95;;
61899;SDS011;47853;55.890;37.664;2022-11-11T15:46:54;6.32;;;3.47;;
61899;SDS011;47853;55.890;37.664;2022-11-11T15:54:53;7.15;;;3.25;;
61899;SDS011;47853;55.890;37.664;2022-11-11T15:57:23;7.63;;;3.85;;
61899;SDS011;47853;55.890;37.664;2022-11-11T15:59:57;4.07;;;3.35;;
61899;SDS011;47853;55.890;37.664;2022-11-11T16:02:25;6.50;;;4.18;;
61899;SDS011;47853;55.890;37.664;2022-11-11T16:05:00;4.38;;;3.50;;
61899;SDS011;47853;55.890;37.664;2022-11-11T16:07:43;7.25;;;4.00;;
61899;SDS011;47853;55.890;37.664;2022-11-11T16:10:17;6.63;;;4.50;;
61899;SDS011;47853;55.890;37.664;2022-11-11T16:12:50;5.25;;;3.28;;
61899;SDS011;47853;55.890;37.664;2022-11-11T16:15:23;13.32;;;3.58;;
61899;SDS011;47853;55.890;37.664;2022-11-11T16:18:03;4.28;;;3.10;;
61899;SDS011;47853;55.890;37.664;2022-11-11T16:23:44;7.15;;;3.67;;
61899;SDS011;47853;55.890;37.664;2022-11-11T16:26:11;4.28;;;3.17;;
61899;SDS011;47853;55.890;37.664;2022-11-11T16:31:21;4.20;;;3.53;;
61899;SDS011;47853;55.890;37.664;2022-11-11T16:34:44;9.65;;;4.50;;
61899;SDS011;47853;55.890;37.664;2022-11-11T16:37:02;4.97;;;3.53;;
61899;SDS011;47853;55.890;37.664;2022-11-11T16:39:32;6.43;;;4.03;;
61899;SDS011;47853;55.890;37.664;2022-11-11T16:42:02;5.60;;;3.75;;
61899;SDS011;47853;55.890;37.664;2022-11-11T16:46:59;4.43;;;3.15;;
61899;SDS011;47853;55.890;37.664;2022-11-11T16:49:25;4.32;;;3.33;;
61899;SDS011;47853;55.890;37.664;2022-11-11T16:52:11;6.55;;;3.88;;
61899;SDS011;47853;55.890;37.664;2022-11-11T16:54:47;9.95;;;3.70;;
61899;SDS011;47853;55.890;37.664;2022-11-11T16:57:27;5.38;;;3.55;;
61899;SDS011;47853;55.890;37.664;2022-11-11T17:00:01;6.00;;;3.97;;
61899;SDS011;47853;55.890;37.664;2022-11-11T17:02:28;6.78;;;3.72;;
61899;SDS011;47853;55.890;37.664;2022-11-11T17:04:55;8.38;;;3.60;;
61899;SDS011;47853;55.890;37.664;2022-11-11T17:07:32;6.10;;;4.05;;
61899;SDS011;47853;55.890;37.664;2022-11-11T17:12:38;9.00;;;4.25;;
61899;SDS011;47853;55.890;37.664;2022-11-11T17:15:04;12.45;;;3.95;;
61899;SDS011;47853;55.890;37.664;2022-11-11T17:17:31;5.13;;;3.20;;
61899;SDS011;47853;55.890;37.664;2022-11-11T17:19:58;3.85;;;3.10;;
61899;SDS011;47853;55.890;37.664;2022-11-11T17:22:26;13.45;;;3.95;;
61899;SDS011;47853;55.890;37.664;2022-11-11T17:24:51;7.78;;;3.95;;
61899;SDS011;47853;55.890;37.664;2022-11-11T17:27:17;4.60;;;3.65;;
61899;SDS011;47853;55.890;37.664;2022-11-11T17:29:44;5.47;;;3.67;;